createdAt,value
2022-07-26T00:00:25.249Z,100565.97
2022-07-26T00:02:53.105Z,100566.59
2022-07-26T00:05:20.962Z,100559.13
2022-07-26T00:07:48.795Z,100557.88
2022-07-26T00:10:16.701Z,100563.25
2022-07-26T00:12:44.495Z,100555.81
2022-07-26T00:15:14.489Z,100563.25
2022-07-26T00:17:42.319Z,100559.94
2022-07-26T00:20:10.987Z,100562.41
2022-07-26T00:22:39.749Z,100564.06
2022-07-26T00:25:09.894Z,100545.44
2022-07-26T00:27:38.043Z,100564.47
2022-07-26T00:30:07.539Z,100557.03
2022-07-26T00:32:37.232Z,100560.34
2022-07-26T00:35:06.007Z,100564.28
2022-07-26T00:37:34.509Z,100559.50
2022-07-26T00:40:02.484Z,100566.97
2022-07-26T00:42:30.455Z,100563.63
2022-07-26T00:44:58.497Z,100568.78
2022-07-26T00:47:26.298Z,100556.59
2022-07-26T00:49:55.483Z,100550.81
2022-07-26T00:52:23.380Z,100563.22
2022-07-26T00:54:51.528Z,100559.50
2022-07-26T00:57:19.789Z,100565.91
2022-07-26T00:59:47.657Z,100543.13
2022-07-26T01:02:16.725Z,100560.53
2022-07-26T01:04:45.303Z,100562.75
2022-07-26T01:07:15.881Z,100561.13
2022-07-26T01:09:44.399Z,100549.13
2022-07-26T01:12:12.763Z,100553.88
2022-07-26T01:14:43.383Z,100556.56
2022-07-26T01:17:11.328Z,100556.31
2022-07-26T01:19:39.216Z,100562.09
2022-07-26T01:22:13.890Z,100558.38
2022-07-26T01:24:42.808Z,100559.81
2022-07-26T01:27:10.683Z,100546.81
2022-07-26T01:29:38.527Z,100552.81
2022-07-26T01:32:07.237Z,100555.06
2022-07-26T01:34:35.348Z,100553.59
2022-07-26T01:37:03.589Z,100555.66
2022-07-26T01:39:32.805Z,100555.66
2022-07-26T01:42:00.699Z,100561.81
2022-07-26T01:44:28.600Z,100553.13
2022-07-26T01:46:56.454Z,100562.63
2022-07-26T01:49:24.467Z,100564.66
2022-07-26T01:51:52.271Z,100568.78
2022-07-26T01:54:22.448Z,100566.09
2022-07-26T01:56:53.765Z,100570.00
2022-07-26T01:59:21.608Z,100572.50
2022-07-26T02:01:49.511Z,100577.22
2022-07-26T02:04:31.316Z,100577.88
2022-07-26T02:06:59.091Z,100572.50
2022-07-26T02:09:27.876Z,100580.94
2022-07-26T02:12:01.229Z,100578.69
2022-07-26T02:14:29.031Z,100588.19
2022-07-26T02:16:59.961Z,100591.09
2022-07-26T02:19:29.762Z,100588.16
2022-07-26T02:21:57.573Z,100586.50
2022-07-26T02:24:28.658Z,100591.03
2022-07-26T02:26:56.879Z,100585.84
2022-07-26T02:29:27.406Z,100586.94
2022-07-26T02:31:55.978Z,100590.44
2022-07-26T02:34:23.797Z,100596.03
2022-07-26T02:36:52.007Z,100595.44
2022-07-26T02:39:19.928Z,100590.66
2022-07-26T02:41:48.791Z,100599.34
2022-07-26T02:44:16.565Z,100593.91
2022-07-26T02:46:45.715Z,100597.25
2022-07-26T02:49:13.706Z,100601.16
2022-07-26T02:51:41.513Z,100593.47
2022-07-26T02:54:09.678Z,100605.84
2022-07-26T02:56:37.839Z,100601.97
2022-07-26T02:59:05.916Z,100579.34
2022-07-26T03:01:35.220Z,100596.97
2022-07-26T03:04:04.569Z,100599.66
2022-07-26T03:06:32.452Z,100600.25
2022-07-26T03:09:00.768Z,100601.66
2022-07-26T03:11:28.584Z,100610.72
2022-07-26T03:13:56.408Z,100608.75
2022-07-26T03:16:29.256Z,100619.03
2022-07-26T03:18:57.388Z,100610.97
2022-07-26T03:21:26.569Z,100615.28
2022-07-26T03:23:54.679Z,100615.25
2022-07-26T03:26:22.552Z,100617.88
2022-07-26T03:28:50.487Z,100620.34
2022-07-26T03:31:18.373Z,100617.28
2022-07-26T03:33:46.175Z,100610.63
2022-07-26T03:36:15.584Z,100614.34
2022-07-26T03:38:45.565Z,100610.44
2022-07-26T03:41:13.827Z,100617.75
2022-07-26T03:43:41.956Z,100626.84
2022-07-26T03:46:10.114Z,100625.34
2022-07-26T03:48:37.997Z,100631.25
2022-07-26T03:51:05.985Z,100621.16
2022-07-26T03:53:34.548Z,100616.19
2022-07-26T03:56:22.268Z,100624.91
2022-07-26T03:58:50.101Z,100617.69
2022-07-26T04:01:18.040Z,100626.00
2022-07-26T04:03:47.853Z,100636.34
2022-07-26T04:06:16.290Z,100634.13
2022-07-26T04:08:44.376Z,100632.41
2022-07-26T04:11:13.956Z,100610.75
2022-07-26T04:13:41.916Z,100635.63
2022-07-26T04:16:09.925Z,100629.22
2022-07-26T04:18:37.963Z,100618.78
2022-07-26T04:21:06.104Z,100635.00
2022-07-26T04:23:33.899Z,100632.50
2022-07-26T04:26:01.724Z,100620.00
2022-07-26T04:28:30.900Z,100629.22
2022-07-26T04:30:59.463Z,100637.44
2022-07-26T04:33:27.467Z,100639.13
2022-07-26T04:35:55.661Z,100641.84
2022-07-26T04:38:23.497Z,100642.47
2022-07-26T04:40:51.671Z,100624.78
2022-07-26T04:43:20.308Z,100641.09
2022-07-26T04:45:49.831Z,100634.06
2022-07-26T04:48:18.443Z,100638.59
2022-07-26T04:50:47.052Z,100640.31
2022-07-26T04:53:14.891Z,100639.88
2022-07-26T04:55:43.228Z,100640.56
2022-07-26T04:58:11.353Z,100638.75
2022-07-26T05:00:56.851Z,100642.09
2022-07-26T05:03:28.591Z,100648.47
2022-07-26T05:05:56.861Z,100644.97
2022-07-26T05:08:24.603Z,100644.13
2022-07-26T05:10:55.416Z,100645.13
2022-07-26T05:13:30.027Z,100643.88
2022-07-26T05:15:59.139Z,100646.81
2022-07-26T05:18:31.481Z,100649.50
2022-07-26T05:20:59.986Z,100648.00
2022-07-26T05:23:27.781Z,100634.97
2022-07-26T05:25:56.348Z,100645.31
2022-07-26T05:28:24.312Z,100653.22
2022-07-26T05:30:52.463Z,100649.50
2022-07-26T05:33:20.708Z,100649.88
2022-07-26T05:35:49.921Z,100649.50
2022-07-26T05:38:17.761Z,100650.13
2022-07-26T05:40:50.288Z,100652.81
2022-07-26T05:43:18.612Z,100649.50
2022-07-26T05:45:46.546Z,100650.72
2022-07-26T05:48:14.467Z,100649.50
2022-07-26T05:50:42.284Z,100649.75
2022-07-26T05:53:11.538Z,100656.38
2022-07-26T05:55:39.369Z,100662.75
2022-07-26T05:58:07.338Z,100657.81
2022-07-26T06:00:35.664Z,100662.28
2022-07-26T06:03:21.857Z,100663.56
2022-07-26T06:05:50.441Z,100662.91
2022-07-26T06:08:20.255Z,100658.56
2022-07-26T06:10:48.703Z,100659.22
2022-07-26T06:13:17.067Z,100666.25
2022-07-26T06:15:45.457Z,100666.81
2022-07-26T06:18:13.833Z,100669.28
2022-07-26T06:20:42.571Z,100667.16
2022-07-26T06:23:11.247Z,100668.44
2022-07-26T06:25:41.970Z,100683.75
2022-07-26T06:28:12.709Z,100676.91
2022-07-26T06:30:41.206Z,100681.34
2022-07-26T06:33:09.614Z,100683.75
2022-07-26T06:35:38.823Z,100695.38
2022-07-26T06:38:07.781Z,100698.06
2022-07-26T06:40:36.507Z,100692.94
2022-07-26T06:43:05.851Z,100689.22
2022-07-26T06:45:34.258Z,100690.44
2022-07-26T06:48:02.197Z,100695.78
2022-07-26T06:50:30.103Z,100691.16
2022-07-26T06:52:58.044Z,100699.09
2022-07-26T06:55:25.950Z,100701.25
2022-07-26T06:57:54.344Z,100705.72
2022-07-26T07:00:23.683Z,100701.88
2022-07-26T07:02:51.533Z,100707.38
2022-07-26T07:05:19.528Z,100707.00
2022-07-26T07:07:47.491Z,100703.56
2022-07-26T07:10:19.319Z,100705.97
2022-07-26T07:12:51.678Z,100717.19
2022-07-26T07:15:19.640Z,100708.81
2022-07-26T07:17:51.608Z,100711.81
2022-07-26T07:20:19.576Z,100703.66
2022-07-26T07:22:47.430Z,100722.34
2022-07-26T07:25:15.464Z,100721.22
2022-07-26T07:27:43.707Z,100727.19
2022-07-26T07:30:17.342Z,100726.06
2022-07-26T07:32:45.225Z,100727.31
2022-07-26T07:35:15.960Z,100720.72
2022-07-26T07:37:52.864Z,100738.94
2022-07-26T07:40:23.146Z,100737.06
2022-07-26T07:42:53.675Z,100736.41
2022-07-26T07:45:22.834Z,100729.00
2022-07-26T07:47:50.693Z,100728.56
2022-07-26T07:50:19.858Z,100739.50
2022-07-26T07:52:51.401Z,100735.78
2022-07-26T07:55:40.222Z,100740.31
2022-07-26T07:58:12.788Z,100739.72
2022-07-26T08:00:42.977Z,100742.19
2022-07-26T08:03:13.995Z,100745.94
2022-07-26T08:05:49.368Z,100750.47
2022-07-26T08:08:22.504Z,100746.72
2022-07-26T08:10:54.443Z,100740.13
2022-07-26T08:13:25.276Z,100750.13
2022-07-26T08:15:56.789Z,100742.91
2022-07-26T08:18:27.194Z,100747.63
2022-07-26T08:20:57.227Z,100738.56
2022-07-26T08:23:26.498Z,100753.69
2022-07-26T08:25:57.853Z,100745.59
2022-07-26T08:31:17.342Z,100748.91
2022-07-26T08:33:46.498Z,100755.69
2022-07-26T08:36:16.897Z,100752.63
2022-07-26T08:38:44.869Z,100753.09
2022-07-26T08:41:15.370Z,100753.59
2022-07-26T08:43:52.102Z,100762.06
2022-07-26T08:46:27.851Z,100768.94
2022-07-26T08:48:56.703Z,100770.38
2022-07-26T08:51:26.991Z,100761.34
2022-07-26T08:54:02.295Z,100764.47
2022-07-26T08:56:33.915Z,100766.13
2022-07-26T08:59:06.205Z,100767.78
2022-07-26T09:01:34.517Z,100771.50
2022-07-26T09:04:43.202Z,100766.00
2022-07-26T09:07:12.075Z,100776.50
2022-07-26T09:09:56.681Z,100775.94
2022-07-26T09:12:25.711Z,100767.22
2022-07-26T09:14:54.852Z,100774.41
2022-07-26T09:17:24.403Z,100772.44
2022-07-26T09:20:09.318Z,100779.97
2022-07-26T09:22:39.898Z,100774.59
2022-07-26T09:25:22.465Z,100777.69
2022-07-26T09:27:53.089Z,100772.94
2022-07-26T09:30:22.123Z,100779.59
2022-07-26T09:33:02.309Z,100780.88
2022-07-26T09:35:51.145Z,100783.31
2022-07-26T09:38:21.203Z,100785.16
2022-07-26T09:40:51.347Z,100781.06
2022-07-26T09:43:19.809Z,100786.66
2022-07-26T09:46:07.256Z,100787.06
2022-07-26T09:49:07.084Z,100786.66
2022-07-26T09:51:46.827Z,100785.47
2022-07-26T09:54:33.761Z,100781.34
2022-07-26T09:57:02.464Z,100784.28
2022-07-26T09:59:37.386Z,100787.22
2022-07-26T10:02:05.910Z,100781.41
2022-07-26T10:04:33.908Z,100787.22
2022-07-26T10:07:09.431Z,100776.69
2022-07-26T10:09:49.904Z,100787.69
2022-07-26T10:12:18.683Z,100770.31
2022-07-26T10:14:49.381Z,100776.28
2022-07-26T10:17:49.561Z,100769.88
2022-07-26T10:20:44.372Z,100788.31
2022-07-26T10:23:47.372Z,100786.03
2022-07-26T10:26:38.823Z,100777.34
2022-07-26T10:29:26.056Z,100781.09
2022-07-26T10:32:27.578Z,100775.75
2022-07-26T10:34:55.600Z,100773.44
2022-07-26T10:37:28.110Z,100778.44
2022-07-26T10:40:18.281Z,100775.81
2022-07-26T10:42:47.688Z,100772.09
2022-07-26T10:45:21.818Z,100779.53
2022-07-26T10:48:15.584Z,100783.69
2022-07-26T10:50:45.581Z,100779.97
2022-07-26T10:53:19.394Z,100768.91
2022-07-26T10:55:51.742Z,100785.72
2022-07-26T10:58:21.750Z,100790.31
2022-07-26T11:00:58.434Z,100786.19
2022-07-26T11:03:38.970Z,100794.47
2022-07-26T11:06:14.737Z,100791.97
2022-07-26T11:08:47.952Z,100794.66
2022-07-26T11:11:29.825Z,100794.03
2022-07-26T11:14:08.160Z,100800.69
2022-07-26T11:16:41.235Z,100799.00
2022-07-26T11:19:19.701Z,100791.16
2022-07-26T11:21:54.497Z,100791.97
2022-07-26T11:24:22.983Z,100789.91
2022-07-26T11:26:51.396Z,100791.50
2022-07-26T11:29:39.167Z,100797.69
2022-07-26T11:32:19.035Z,100797.91
2022-07-26T11:34:47.781Z,100809.44
2022-07-26T11:37:15.707Z,100803.53
2022-07-26T11:39:43.520Z,100796.91
2022-07-26T11:42:16.127Z,100794.25
2022-07-26T11:44:47.032Z,100785.22
2022-07-26T11:47:16.796Z,100769.78
2022-07-26T11:50:09.111Z,100807.31
2022-07-26T11:52:33.354Z,100808.56
2022-07-26T11:55:01.357Z,100829.38
2022-07-26T11:57:31.029Z,100800.41
2022-07-26T12:00:01.566Z,100811.19
2022-07-26T12:02:39.272Z,100812.47
2022-07-26T12:05:18.459Z,100817.66
2022-07-26T12:08:02.914Z,100802.53
2022-07-26T12:10:31.157Z,100825.94
2022-07-26T12:13:13.584Z,100823.69
2022-07-26T12:15:51.314Z,100810.59
2022-07-26T12:18:24.702Z,100795.69
2022-07-26T12:21:04.930Z,100845.47
2022-07-26T12:23:44.529Z,100832.16
2022-07-26T12:26:23.048Z,100792.97
2022-07-26T12:28:51.230Z,100807.47
2022-07-26T12:31:28.903Z,100808.09
2022-07-26T12:33:57.254Z,100832.06
2022-07-26T12:36:28.491Z,100802.19
2022-07-26T12:38:57.686Z,100840.59
2022-07-26T12:41:36.687Z,100838.78
2022-07-26T12:44:05.814Z,100828.88
2022-07-26T12:46:36.262Z,100825.09
2022-07-26T12:49:05.879Z,100728.94
2022-07-26T12:51:34.320Z,100657.06
2022-07-26T12:54:03.517Z,100834.84
2022-07-26T12:56:31.410Z,100839.25
2022-07-26T12:59:01.384Z,100817.25
2022-07-26T13:01:29.707Z,100824.72
2022-07-26T13:03:59.153Z,100809.66
2022-07-26T13:06:27.219Z,100815.44
2022-07-26T13:08:56.455Z,100838.38
2022-07-26T13:11:24.944Z,100827.84
2022-07-26T13:13:52.905Z,100832.22
2022-07-26T13:16:20.860Z,100805.75
2022-07-26T13:18:48.687Z,100821.59
2022-07-26T13:21:17.853Z,100818.72
2022-07-26T13:23:45.706Z,100811.94
2022-07-26T13:26:14.046Z,100793.91
2022-07-26T13:28:42.549Z,100804.28
2022-07-26T13:31:10.799Z,100806.44
2022-07-26T13:33:39.534Z,100808.75
2022-07-26T13:36:07.567Z,100807.88
2022-07-26T13:38:36.781Z,100809.84
2022-07-26T13:41:05.314Z,100808.75
2022-07-26T13:43:33.294Z,100802.97
2022-07-26T13:46:01.120Z,100800.03
2022-07-26T13:48:29.247Z,100794.31
2022-07-26T13:50:57.988Z,100793.41
2022-07-26T13:53:26.503Z,100803.06
2022-07-26T13:55:55.701Z,100804.50
2022-07-26T13:58:23.479Z,100795.00
2022-07-26T14:00:51.269Z,100782.44
2022-07-26T14:03:19.242Z,100807.25
2022-07-26T14:05:47.371Z,100803.91
2022-07-26T14:08:15.178Z,100796.97
2022-07-26T14:10:43.074Z,100787.19
2022-07-26T14:13:12.356Z,100778.16
2022-07-26T14:15:40.170Z,100807.28
2022-07-26T14:18:07.991Z,100821.47
2022-07-26T14:20:35.827Z,100815.53
2022-07-26T14:23:04.444Z,100823.69
2022-07-26T14:25:33.365Z,100825.78
2022-07-26T14:28:01.341Z,100827.50
2022-07-26T14:30:30.527Z,100814.06
2022-07-26T14:32:58.422Z,100802.91
2022-07-26T14:35:26.507Z,100826.53
2022-07-26T14:37:54.323Z,100826.31
2022-07-26T14:40:22.178Z,100820.91
2022-07-26T14:42:50.447Z,100834.19
2022-07-26T14:45:18.316Z,100830.88
2022-07-26T14:50:16.496Z,100842.66
2022-07-26T14:52:46.486Z,100843.13
2022-07-26T14:55:15.380Z,100836.75
2022-07-26T14:57:43.609Z,100844.50
2022-07-26T15:00:14.701Z,100842.00
2022-07-26T15:02:44.181Z,100844.53
2022-07-26T15:05:14.752Z,100845.34
2022-07-26T15:07:43.451Z,100853.28
2022-07-26T15:10:14.578Z,100851.84
2022-07-26T15:12:42.911Z,100852.91
2022-07-26T15:15:12.269Z,100839.00
2022-07-26T15:17:40.141Z,100847.75
2022-07-26T15:20:09.129Z,100846.50
2022-07-26T15:22:38.470Z,100840.94
2022-07-26T15:25:07.399Z,100847.16
2022-07-26T15:27:35.274Z,100848.59
2022-07-26T15:30:06.051Z,100842.75
2022-07-26T15:32:35.391Z,100855.63
2022-07-26T15:35:03.461Z,100846.91
2022-07-26T15:37:31.375Z,100860.81
2022-07-26T15:40:00.814Z,100860.81
2022-07-26T15:42:31.613Z,100859.34
2022-07-26T15:44:59.708Z,100856.25
2022-07-26T15:47:52.182Z,100864.13
2022-07-26T15:50:17.828Z,100858.94
2022-07-26T15:52:47.054Z,100861.03
2022-07-26T15:55:17.703Z,100844.00
2022-07-26T15:57:45.951Z,100832.59
2022-07-26T16:00:15.134Z,100854.16
2022-07-26T16:02:43.121Z,100859.13
2022-07-26T16:05:12.191Z,100857.53
2022-07-26T16:07:41.477Z,100856.28
2022-07-26T16:10:11.043Z,100856.28
2022-07-26T16:12:41.013Z,100835.94
2022-07-26T16:15:10.898Z,100854.63
2022-07-26T16:17:39.567Z,100854.00
2022-07-26T16:20:08.480Z,100850.06
2022-07-26T16:22:39.359Z,100853.38
2022-07-26T16:25:08.474Z,100824.94
2022-07-26T16:27:36.341Z,100838.00
2022-07-26T16:30:06.261Z,100850.03
2022-07-26T16:32:34.261Z,100856.47
2022-07-26T16:35:02.132Z,100857.28
2022-07-26T16:37:29.935Z,100849.19
2022-07-26T16:39:57.753Z,100851.28
2022-07-26T16:42:26.113Z,100851.28
2022-07-26T16:44:54.044Z,100850.88
2022-07-26T16:47:23.196Z,100848.78
2022-07-26T16:49:50.976Z,100855.84
2022-07-26T16:52:18.819Z,100853.16
2022-07-26T16:54:46.708Z,100847.94
2022-07-26T16:57:14.488Z,100850.03
2022-07-26T16:59:42.270Z,100851.47
2022-07-26T17:02:10.160Z,100865.16
2022-07-26T17:04:39.667Z,100868.72
2022-07-26T17:07:24.580Z,100863.31
2022-07-26T17:09:53.779Z,100869.13
2022-07-26T17:12:21.728Z,100857.09
2022-07-26T17:14:49.816Z,100857.31
2022-07-26T17:17:17.710Z,100864.94
2022-07-26T17:19:46.931Z,100860.41
2022-07-26T17:22:15.016Z,100863.91
2022-07-26T17:24:42.942Z,100864.94
2022-07-26T17:27:13.193Z,100874.50
2022-07-26T17:29:41.041Z,100882.78
2022-07-26T17:32:09.675Z,100877.38
2022-07-26T17:34:37.569Z,100866.19
2022-07-26T17:37:09.933Z,100873.22
2022-07-26T17:39:52.618Z,100874.44
2022-07-26T17:42:21.969Z,100874.25
2022-07-26T17:44:50.338Z,100863.25
2022-07-26T17:47:28.931Z,100870.72
2022-07-26T17:50:14.016Z,100868.88
2022-07-26T17:52:48.580Z,100866.56
2022-07-26T17:55:18.298Z,100861.38
2022-07-26T17:57:46.153Z,100873.63
2022-07-26T18:00:15.471Z,100870.31
2022-07-26T18:02:43.358Z,100873.63
2022-07-26T18:05:12.037Z,100878.19
2022-07-26T18:07:40.172Z,100885.22
2022-07-26T18:10:11.571Z,100876.91
2022-07-26T18:12:39.391Z,100881.03
2022-07-26T18:15:08.448Z,100871.28
2022-07-26T18:17:36.455Z,100870.91
2022-07-26T18:20:05.672Z,100866.13
2022-07-26T18:22:33.627Z,100880.22
2022-07-26T18:25:01.843Z,100879.19
2022-07-26T18:27:31.088Z,100876.91
2022-07-26T18:29:59.210Z,100879.81
2022-07-26T18:32:28.382Z,100873.78
2022-07-26T18:34:56.300Z,100878.31
2022-07-26T18:37:26.869Z,100873.13
2022-07-26T18:39:57.751Z,100866.47
2022-07-26T18:42:26.072Z,100875.81
2022-07-26T18:44:55.488Z,100874.78
2022-07-26T18:47:25.988Z,100878.47
2022-07-26T18:49:54.003Z,100887.16
2022-07-26T18:52:28.932Z,100884.66
2022-07-26T18:55:02.509Z,100891.69
2022-07-26T18:57:30.395Z,100888.38
2022-07-26T18:59:59.935Z,100884.03
2022-07-26T19:05:35.392Z,100890.84
2022-07-26T19:08:04.041Z,100897.25
2022-07-26T19:10:32.344Z,100894.31
2022-07-26T19:13:00.179Z,100899.91
2022-07-26T19:15:31.968Z,100901.34
2022-07-26T19:17:59.944Z,100907.31
2022-07-26T19:20:27.744Z,100913.94
2022-07-26T19:22:55.701Z,100908.53
2022-07-26T19:25:23.897Z,100911.81
2022-07-26T19:27:51.973Z,100926.31
2022-07-26T19:30:19.847Z,100926.72
2022-07-26T19:32:51.536Z,100923.00
2022-07-26T19:35:19.329Z,100921.72
2022-07-26T19:37:47.227Z,100923.34
2022-07-26T19:40:15.290Z,100917.72
2022-07-26T19:42:43.272Z,100916.88
2022-07-26T19:45:11.895Z,100927.00
2022-07-26T19:47:40.092Z,100917.03
2022-07-26T19:50:11.906Z,100932.53
2022-07-26T19:52:40.404Z,100938.94
2022-07-26T19:55:09.150Z,100944.31
2022-07-26T19:57:37.210Z,100949.69
2022-07-26T20:00:07.411Z,100948.84
2022-07-26T20:02:41.650Z,100943.06
2022-07-26T20:05:13.793Z,100941.78
2022-07-26T20:07:41.690Z,100944.28
2022-07-26T20:10:12.250Z,100949.00
2022-07-26T20:12:40.186Z,100951.25
2022-07-26T20:15:09.394Z,100951.63
2022-07-26T20:17:39.732Z,100962.59
2022-07-26T20:20:08.645Z,100962.38
2022-07-26T20:22:38.329Z,100975.84
2022-07-26T20:25:07.716Z,100976.84
2022-07-26T20:27:37.964Z,100977.28
2022-07-26T20:30:06.971Z,100975.97
2022-07-26T20:32:34.815Z,100976.81
2022-07-26T20:35:11.838Z,100979.50
2022-07-26T20:37:43.022Z,100967.28
2022-07-26T20:40:12.692Z,100972.19
2022-07-26T20:42:44.360Z,100973.41
2022-07-26T20:45:13.190Z,100968.03
2022-07-26T20:47:41.686Z,100981.88
2022-07-26T20:50:10.881Z,100985.59
2022-07-26T20:52:38.948Z,100990.16
2022-07-26T20:55:09.385Z,100990.78
2022-07-26T20:57:37.743Z,100989.50
2022-07-26T21:00:09.154Z,100992.00
2022-07-26T21:02:37.216Z,100992.84
2022-07-26T21:05:06.419Z,100996.34
2022-07-26T21:07:56.537Z,100998.59
2022-07-26T21:10:23.360Z,100999.41
2022-07-26T21:12:52.552Z,101005.44
2022-07-26T21:15:20.372Z,101003.78
2022-07-26T21:17:48.148Z,101010.53
2022-07-26T21:20:16.007Z,101008.50
2022-07-26T21:22:43.850Z,101017.59
2022-07-26T21:25:11.737Z,101011.28
2022-07-26T21:27:41.141Z,101012.53
2022-07-26T21:30:10.323Z,101009.84
2022-07-26T21:32:38.173Z,101011.28
2022-07-26T21:35:06.932Z,101010.88
2022-07-26T21:37:34.826Z,101010.88
2022-07-26T21:40:02.688Z,101013.84
2022-07-26T21:42:30.463Z,101013.56
2022-07-26T21:44:59.600Z,101011.53
2022-07-26T21:47:27.438Z,101018.19
2022-07-26T21:49:55.181Z,101019.41
2022-07-26T21:52:23.033Z,101016.91
2022-07-26T21:54:50.901Z,101021.00
2022-07-26T21:57:18.809Z,101029.59
2022-07-26T21:59:46.704Z,101034.16
2022-07-26T22:02:15.981Z,101023.78
2022-07-26T22:04:48.189Z,101030.56
2022-07-26T22:07:15.989Z,101033.63
2022-07-26T22:09:43.822Z,101035.00
2022-07-26T22:12:11.718Z,101031.97
2022-07-26T22:14:39.636Z,101022.88
2022-07-26T22:17:07.431Z,101031.50
2022-07-26T22:19:36.603Z,101040.75
2022-07-26T22:22:05.664Z,101036.75
2022-07-26T22:24:33.491Z,101039.84
2022-07-26T22:27:01.312Z,101038.38
2022-07-26T22:29:38.927Z,101039.19
2022-07-26T22:32:08.177Z,101041.59
2022-07-26T22:34:37.432Z,101039.69
2022-07-26T22:37:05.361Z,101041.97
2022-07-26T22:39:33.184Z,101044.66
2022-07-26T22:42:14.843Z,101040.03
2022-07-26T22:44:43.823Z,101045.13
2022-07-26T22:47:11.667Z,101040.13
2022-07-26T22:49:40.922Z,101044.13
2022-07-26T22:52:08.778Z,101049.31
2022-07-26T22:54:36.718Z,101049.66
2022-07-26T22:57:04.735Z,101053.72
2022-07-26T22:59:32.952Z,101055.41
2022-07-26T23:02:01.124Z,101054.19
2022-07-26T23:04:28.958Z,101049.19
2022-07-26T23:07:00.267Z,101050.44
2022-07-26T23:09:29.346Z,101056.59
2022-07-26T23:11:57.153Z,101042.91
2022-07-26T23:14:24.941Z,101057.34
2022-07-26T23:16:52.864Z,101054.66
2022-07-26T23:19:20.698Z,101057.81
2022-07-26T23:21:48.512Z,101070.13
2022-07-26T23:24:17.683Z,101061.41
2022-07-26T23:26:45.420Z,101062.63
2022-07-26T23:29:13.489Z,101064.19
2022-07-26T23:31:42.133Z,101060.34
2022-07-26T23:34:10.015Z,101059.34
2022-07-26T23:36:37.852Z,101040.53
2022-07-26T23:39:06.415Z,101064.88
2022-07-26T23:41:35.676Z,101061.72
2022-07-26T23:44:03.521Z,101053.25
2022-07-26T23:46:31.474Z,101062.91
2022-07-26T23:49:00.110Z,101063.97
2022-07-26T23:51:28.071Z,101061.47
2022-07-26T23:53:55.865Z,101035.63
2022-07-26T23:56:23.970Z,101051.94
2022-07-26T23:58:53.148Z,101044.72
